This is the latest recevied weather packets stored in our database for station/object WMKL. If no packets are shown the sender has not sent any weather packets the latest 10 day(s).
| Time | Temp. | Humidity | Pressure | Rain* | Wind** | Luminosity | Snow |
|---|---|---|---|---|---|---|---|
| 1777968650 | 31.67° C | 70% | 1006 hPa | - | - | - | - |
| 1777965047 | 31.67° C | 70% | 1007 hPa | - | - | - | - |
| 1777961452 | 31.67° C | 70% | 1008 hPa | - | - | - | - |
| 1777957864 | 30.56° C | 74% | 1009 hPa | - | - | - | - |
| 1777954250 | 30.56° C | 70% | 1010 hPa | - | - | - | - |
| 1777943448 | 26.67° C | 88% | 1009 hPa | - | - | - | - |
| 1777896648 | 26.67° C | 88% | 1007 hPa | - | - | - | - |
| 1777893064 | 26.67° C | 88% | 1007 hPa | - | - | - | - |
| 1777889448 | 30° C | 74% | 1007 hPa | - | - | - | - |
| 1777885846 | 30.56° C | 70% | 1007 hPa | - | - | - | - |
| 1777882246 | 30° C | 79% | 1007 hPa | - | - | - | - |
| 1777878663 | 28.89° C | 79% | 1009 hPa | - | - | - | - |
| 1777875047 | 28.89° C | 83% | 1010 hPa | - | - | - | - |
| 1777871446 | 26.67° C | 88% | 1011 hPa | - | - | - | - |
| 1777867846 | 30° C | 74% | 1011 hPa | - | - | - | - |
| 1777842647 | 25° C | 94% | 1008 hPa | - | - | - | - |
| 1777839045 | 25° C | 88% | 1008 hPa | - | - | - | - |
| 1777835446 | 23.89° C | 10% | - | - | - | - | - |
| 1777831845 | 23.89° C | 94% | 1010 hPa | - | - | - | - |
| 1777824645 | 27.78° C | 88% | 1010 hPa | - | - | - | - |
| 1777817441 | 28.89° C | 83% | 1009 hPa | - | - | - | - |
| 1777810264 | 30° C | 74% | 1008 hPa | - | - | - | - |
| 1777806648 | 30.56° C | 70% | 1006 hPa | - | - | - | - |
| 1777803044 | 30.56° C | 70% | 1006 hPa | - | - | - | - |
| 1777799444 | 30.56° C | 74% | 1005 hPa | - | - | - | - |
* Rain since midnight (hover to see other rain measurements)
** Current wind speed in m/s (hover to see current wind gust speed)